Time;durP1;ratioP1;P1;durP2;ratioP2;P2;SDS_P1;SDS_P2;PMS_P1;PMS_P2;Temp;Humidity;BMP_temperature;BMP_pressure;BME280_temperature;BME280_humidity;BME280_pressure;Samples;Min_cycle;Max_cycle;Signal;HPM_P1;HPM_P2
2022/05/03 00:00:49;;;;;;;;;;;6.80;99.90;;;;;;5027850;28;20333;-76
2022/05/03 00:03:21;;;;;;;;;;;6.70;99.90;;;;;;5027816;28;20581;-76
2022/05/03 00:06:05;;;;;;;;;;;6.70;99.90;;;;;;5030175;28;19928;-77
2022/05/03 00:08:30;;;;;;;;;;;6.60;99.90;;;;;;5024981;28;20279;-76
2022/05/03 00:11:09;;;;;;;;;;;6.50;99.90;;;;;;5012767;28;19967;-77
2022/05/03 00:14:01;;;;;;;;;;;6.50;99.90;;;;;;4997969;28;20016;-77
2022/05/03 00:16:26;;;;;;;;;;;6.50;99.90;;;;;;5026688;28;19929;-76
2022/05/03 00:18:52;;;;;;;;;;;6.60;99.90;;;;;;5029243;28;19968;-75
2022/05/03 00:21:17;;;;;;;;;;;6.60;99.90;;;;;;5030411;28;19927;-75
2022/05/03 00:23:43;;;;;;;;;;;6.60;99.90;;;;;;5029037;28;20325;-77
2022/05/03 00:26:09;;;;;;;;;;;6.60;99.90;;;;;;4990536;28;19931;-75
2022/05/03 00:28:35;;;;;;;;;;;6.60;99.90;;;;;;5025317;28;21893;-75
2022/05/03 00:31:01;;;;;;;;;;;6.50;99.90;;;;;;5026176;28;20418;-76
2022/05/03 00:33:29;;;;;;;;;;;6.40;99.90;;;;;;5026410;28;19925;-75
2022/05/03 00:35:54;;;;;;;;;;;6.40;99.90;;;;;;5030065;28;19921;-75
2022/05/03 00:38:20;;;;;;;;;;;6.50;99.90;;;;;;5025972;28;19927;-76
2022/05/03 00:40:52;;;;;;;;;;;6.40;99.90;;;;;;5028389;28;19921;-76
2022/05/03 00:43:23;;;;;;;;;;;6.40;99.90;;;;;;5023067;28;19975;-76
2022/05/03 00:45:54;;;;;;;;;;;6.40;99.90;;;;;;5027848;28;19928;-77
2022/05/03 00:48:36;;;;;;;;;;;6.30;99.90;;;;;;5027451;28;19921;-76
2022/05/03 00:51:04;;;;;;;;;;;6.30;99.90;;;;;;5029755;28;19976;-77
2022/05/03 00:53:29;;;;;;;;;;;6.20;99.90;;;;;;5028913;28;20259;-78
2022/05/03 00:55:55;;;;;;;;;;;6.10;99.90;;;;;;5027348;28;19975;-77
2022/05/03 00:58:39;;;;;;;;;;;6.20;99.90;;;;;;5024849;28;19967;-76
2022/05/03 01:01:07;;;;;;;;;;;6.20;99.90;;;;;;5027146;28;20003;-77
2022/05/03 01:03:47;;;;;;;;;;;6.10;99.90;;;;;;5026984;28;20278;-77
2022/05/03 01:06:31;;;;;;;;;;;6.10;99.90;;;;;;5027870;28;20017;-77
2022/05/03 01:09:03;;;;;;;;;;;6.10;99.90;;;;;;5025068;28;19928;-75
2022/05/03 01:11:47;;;;;;;;;;;6.10;99.90;;;;;;5024878;28;19921;-76
2022/05/03 01:14:13;;;;;;;;;;;6.00;99.90;;;;;;5026817;28;19931;-75
2022/05/03 01:16:45;;;;;;;;;;;5.90;99.90;;;;;;5026908;28;20355;-75
2022/05/03 01:19:19;;;;;;;;;;;5.80;99.90;;;;;;5024980;28;19920;-76
2022/05/03 01:22:07;;;;;;;;;;;5.90;99.90;;;;;;5028198;28;19974;-76
2022/05/03 01:24:51;;;;;;;;;;;5.90;99.90;;;;;;5025269;28;20401;-76
2022/05/03 01:27:19;;;;;;;;;;;5.90;99.90;;;;;;5028124;28;19929;-77
2022/05/03 01:29:48;;;;;;;;;;;5.80;99.90;;;;;;5026388;28;19925;-76
2022/05/03 01:32:16;;;;;;;;;;;5.80;99.90;;;;;;5008319;28;19928;-75
2022/05/03 01:34:45;;;;;;;;;;;5.80;99.90;;;;;;5027112;28;19925;-76
2022/05/03 01:37:26;;;;;;;;;;;5.80;99.90;;;;;;5024810;28;20300;-74
2022/05/03 01:40:01;;;;;;;;;;;5.80;99.90;;;;;;5026044;28;20298;-76
2022/05/03 01:42:42;;;;;;;;;;;5.80;99.90;;;;;;5026875;28;19994;-76
2022/05/03 01:45:09;;;;;;;;;;;5.70;99.90;;;;;;5014938;28;19940;-75
2022/05/03 01:47:53;;;;;;;;;;;5.80;99.90;;;;;;5023790;28;19925;-76
2022/05/03 01:50:26;;;;;;;;;;;5.70;99.90;;;;;;5009729;28;19921;-75
2022/05/03 01:53:03;;;;;;;;;;;5.70;99.90;;;;;;5012299;28;19968;-76
2022/05/03 01:55:40;;;;;;;;;;;5.60;99.90;;;;;;5026538;28;19921;-76
2022/05/03 01:58:30;;;;;;;;;;;5.60;99.90;;;;;;5022724;28;19980;-76
2022/05/03 02:01:03;;;;;;;;;;;5.60;99.90;;;;;;5011891;28;19929;-76
2022/05/03 02:03:30;;;;;;;;;;;5.50;99.90;;;;;;5024460;28;19921;-75
2022/05/03 02:06:04;;;;;;;;;;;5.40;99.90;;;;;;5025732;28;19921;-75
2022/05/03 02:08:50;;;;;;;;;;;5.40;99.90;;;;;;5022937;28;19921;-76
2022/05/03 02:11:31;;;;;;;;;;;5.50;99.90;;;;;;5027548;28;19921;-76
2022/05/03 02:17:01;;;;;;;;;;;5.50;99.90;;;;;;5026338;28;20383;-76
2022/05/03 02:19:41;;;;;;;;;;;5.60;99.90;;;;;;5023832;28;19921;-75
2022/05/03 02:22:20;;;;;;;;;;;5.50;99.90;;;;;;5025638;28;20004;-76
2022/05/03 02:25:00;;;;;;;;;;;5.50;99.90;;;;;;5022646;28;19921;-75
2022/05/03 02:27:26;;;;;;;;;;;5.50;99.90;;;;;;5024835;28;19936;-75
2022/05/03 02:29:52;;;;;;;;;;;5.60;99.90;;;;;;5025278;28;20330;-74
2022/05/03 02:32:22;;;;;;;;;;;5.60;99.90;;;;;;4988021;28;1058608;-76
2022/05/03 02:34:58;;;;;;;;;;;5.70;99.90;;;;;;5028280;28;19928;-75
2022/05/03 02:37:25;;;;;;;;;;;5.60;99.90;;;;;;5030021;28;19932;-76
2022/05/03 02:39:53;;;;;;;;;;;5.80;99.90;;;;;;5028882;28;19921;-75
2022/05/03 02:42:20;;;;;;;;;;;5.70;99.90;;;;;;5030193;28;19921;-76
2022/05/03 02:44:46;;;;;;;;;;;5.80;99.90;;;;;;5030406;28;19928;-75
2022/05/03 02:47:32;;;;;;;;;;;5.90;99.90;;;;;;5029420;28;19928;-76
2022/05/03 02:49:57;;;;;;;;;;;5.90;99.90;;;;;;5029603;28;19935;-76
2022/05/03 02:52:28;;;;;;;;;;;6.00;99.90;;;;;;5011317;28;19921;-75
2022/05/03 02:55:03;;;;;;;;;;;6.10;99.90;;;;;;5029741;28;19992;-76
2022/05/03 02:57:47;;;;;;;;;;;6.00;99.90;;;;;;5013722;28;19983;-75
2022/05/03 03:03:16;;;;;;;;;;;6.10;99.90;;;;;;5029709;28;19921;-75
2022/05/03 03:05:43;;;;;;;;;;;6.20;99.90;;;;;;5025898;28;19921;-75
2022/05/03 03:08:11;;;;;;;;;;;6.20;99.90;;;;;;5027750;28;19921;-74
2022/05/03 03:10:39;;;;;;;;;;;6.30;99.90;;;;;;5030144;28;19948;-75
2022/05/03 03:13:13;;;;;;;;;;;6.20;99.90;;;;;;5032495;28;19925;-75
2022/05/03 03:15:40;;;;;;;;;;;6.20;99.90;;;;;;5025898;28;20496;-76
2022/05/03 03:18:11;;;;;;;;;;;6.20;99.90;;;;;;5021263;28;19956;-76
2022/05/03 03:20:42;;;;;;;;;;;6.30;99.90;;;;;;5026235;28;19926;-76
2022/05/03 03:23:07;;;;;;;;;;;6.30;99.90;;;;;;5030295;28;19999;-74
2022/05/03 03:25:34;;;;;;;;;;;6.30;99.90;;;;;;5029710;28;19996;-75
2022/05/03 03:28:01;;;;;;;;;;;6.30;99.90;;;;;;5013280;28;20004;-76
2022/05/03 03:30:26;;;;;;;;;;;6.20;99.90;;;;;;5029602;28;20413;-76
2022/05/03 03:32:53;;;;;;;;;;;6.30;99.90;;;;;;5027679;28;19964;-76
2022/05/03 03:35:19;;;;;;;;;;;6.30;99.90;;;;;;5029464;28;19963;-76
2022/05/03 03:37:46;;;;;;;;;;;6.30;99.90;;;;;;5029102;28;19928;-76
2022/05/03 03:40:13;;;;;;;;;;;6.40;99.90;;;;;;5028484;28;20003;-75
2022/05/03 03:42:40;;;;;;;;;;;6.40;99.90;;;;;;5030378;28;19925;-75
2022/05/03 03:45:09;;;;;;;;;;;6.50;99.90;;;;;;5029514;28;20279;-77
2022/05/03 03:47:35;;;;;;;;;;;6.50;99.90;;;;;;5028912;28;19924;-75
2022/05/03 03:50:01;;;;;;;;;;;6.50;99.90;;;;;;5028334;28;19936;-76
2022/05/03 03:52:27;;;;;;;;;;;6.50;99.90;;;;;;5029441;28;19925;-77
2022/05/03 03:54:53;;;;;;;;;;;6.60;99.90;;;;;;5028347;28;19921;-76
2022/05/03 03:57:21;;;;;;;;;;;6.70;99.90;;;;;;5026849;28;19925;-75
2022/05/03 03:59:47;;;;;;;;;;;6.70;99.90;;;;;;5028925;28;20386;-75
2022/05/03 04:02:12;;;;;;;;;;;6.80;99.90;;;;;;5028675;28;19921;-75
2022/05/03 04:04:40;;;;;;;;;;;6.80;99.90;;;;;;5028237;28;20049;-75
2022/05/03 04:07:05;;;;;;;;;;;6.80;99.90;;;;;;5028756;28;19921;-75
2022/05/03 04:09:32;;;;;;;;;;;6.80;99.90;;;;;;5029569;28;19982;-74
2022/05/03 04:11:59;;;;;;;;;;;6.90;99.90;;;;;;5031238;28;19921;-75
2022/05/03 04:14:25;;;;;;;;;;;6.90;99.90;;;;;;5028566;28;19928;-76
2022/05/03 04:16:51;;;;;;;;;;;6.80;99.90;;;;;;5029280;28;20266;-76
2022/05/03 04:19:16;;;;;;;;;;;6.80;99.90;;;;;;5028270;28;20027;-75
2022/05/03 04:21:42;;;;;;;;;;;6.90;99.90;;;;;;5011775;28;19921;-75
2022/05/03 04:24:07;;;;;;;;;;;6.90;99.90;;;;;;5028816;28;19921;-75
2022/05/03 04:26:33;;;;;;;;;;;7.00;99.90;;;;;;5008867;28;19924;-75
2022/05/03 04:29:02;;;;;;;;;;;7.00;99.90;;;;;;5026120;28;19932;-75
2022/05/03 04:31:28;;;;;;;;;;;7.00;99.90;;;;;;5028366;28;19968;-76
2022/05/03 04:33:54;;;;;;;;;;;7.00;99.90;;;;;;5028247;28;19921;-75
2022/05/03 04:36:21;;;;;;;;;;;7.10;99.90;;;;;;5025460;28;19932;-75
2022/05/03 04:38:47;;;;;;;;;;;7.10;99.90;;;;;;5026625;28;19925;-75
2022/05/03 04:41:12;;;;;;;;;;;7.20;99.90;;;;;;5011011;28;19971;-75
2022/05/03 04:43:38;;;;;;;;;;;7.20;99.90;;;;;;5029455;28;20012;-76
2022/05/03 04:46:03;;;;;;;;;;;7.20;99.90;;;;;;5010526;28;19921;-74
2022/05/03 04:48:29;;;;;;;;;;;7.20;99.90;;;;;;5026252;28;19936;-77
2022/05/03 04:50:54;;;;;;;;;;;7.20;99.90;;;;;;5029349;28;19967;-76
2022/05/03 04:53:21;;;;;;;;;;;7.20;99.90;;;;;;5027968;28;19948;-75
2022/05/03 04:55:47;;;;;;;;;;;7.30;99.90;;;;;;5023613;28;19932;-76
2022/05/03 04:58:12;;;;;;;;;;;7.30;99.90;;;;;;5028022;28;19927;-76
2022/05/03 05:00:38;;;;;;;;;;;7.30;99.90;;;;;;5027213;28;19944;-76
2022/05/03 05:03:03;;;;;;;;;;;7.40;99.90;;;;;;5008655;28;19928;-73
2022/05/03 05:05:29;;;;;;;;;;;7.40;99.90;;;;;;5025516;28;19921;-76
2022/05/03 05:07:54;;;;;;;;;;;7.30;99.90;;;;;;5027009;28;20067;-76
2022/05/03 05:10:23;;;;;;;;;;;7.40;99.90;;;;;;5027504;28;19921;-74
2022/05/03 05:12:49;;;;;;;;;;;7.40;99.90;;;;;;5028259;28;20272;-75
2022/05/03 05:15:14;;;;;;;;;;;7.50;99.90;;;;;;5026998;28;19921;-75
2022/05/03 05:17:40;;;;;;;;;;;7.50;99.90;;;;;;5010919;28;19932;-75
2022/05/03 05:20:06;;;;;;;;;;;7.50;99.90;;;;;;5012802;28;19968;-75
2022/05/03 05:22:32;;;;;;;;;;;7.60;99.90;;;;;;5026578;28;19960;-76
2022/05/03 05:24:57;;;;;;;;;;;7.60;99.90;;;;;;5027894;28;19932;-75
2022/05/03 05:27:23;;;;;;;;;;;7.70;99.90;;;;;;5027616;28;20028;-75
2022/05/03 05:29:49;;;;;;;;;;;7.70;99.90;;;;;;5024159;28;19921;-75
2022/05/03 05:32:14;;;;;;;;;;;7.80;99.90;;;;;;5025819;28;19921;-74
2022/05/03 05:34:40;;;;;;;;;;;7.70;99.90;;;;;;5027493;28;20268;-76
2022/05/03 05:37:05;;;;;;;;;;;7.80;99.90;;;;;;5023522;28;19921;-76
2022/05/03 05:39:31;;;;;;;;;;;7.90;99.90;;;;;;5027797;28;19921;-75
2022/05/03 05:41:59;;;;;;;;;;;8.00;99.90;;;;;;5027397;28;20008;-78
2022/05/03 05:44:25;;;;;;;;;;;8.00;99.90;;;;;;5010526;28;20322;-76
2022/05/03 05:46:52;;;;;;;;;;;8.00;99.90;;;;;;5023910;28;19921;-76
2022/05/03 05:49:17;;;;;;;;;;;8.10;99.90;;;;;;5025376;28;19929;-75
2022/05/03 05:51:45;;;;;;;;;;;8.10;99.90;;;;;;5018888;28;19921;-75
2022/05/03 05:54:11;;;;;;;;;;;8.10;99.90;;;;;;5024199;28;20281;-74
2022/05/03 05:56:36;;;;;;;;;;;8.10;99.90;;;;;;5028818;28;20016;-75
2022/05/03 05:59:02;;;;;;;;;;;8.10;99.90;;;;;;5028182;28;19921;-75
2022/05/03 06:01:37;;;;;;;;;;;8.10;99.90;;;;;;5027082;28;20298;-75
2022/05/03 06:04:03;;;;;;;;;;;8.10;99.90;;;;;;5028202;28;19920;-75
2022/05/03 06:06:29;;;;;;;;;;;8.10;99.90;;;;;;5024864;28;20023;-75
2022/05/03 06:08:54;;;;;;;;;;;8.20;99.90;;;;;;5019015;28;19921;-77
2022/05/03 06:11:20;;;;;;;;;;;8.20;99.90;;;;;;5020448;28;20425;-76
2022/05/03 06:13:47;;;;;;;;;;;8.30;99.90;;;;;;5028118;28;19921;-77
2022/05/03 06:16:13;;;;;;;;;;;8.30;99.90;;;;;;5027453;28;19921;-76
2022/05/03 06:18:38;;;;;;;;;;;8.30;99.90;;;;;;5027126;28;20359;-75
2022/05/03 06:21:07;;;;;;;;;;;8.40;99.90;;;;;;5024982;28;20386;-75
2022/05/03 06:23:33;;;;;;;;;;;8.50;99.90;;;;;;5026359;28;19952;-76
2022/05/03 06:25:59;;;;;;;;;;;8.60;99.90;;;;;;5027640;28;19964;-75
2022/05/03 06:28:24;;;;;;;;;;;8.70;99.90;;;;;;5009918;28;21427;-75
2022/05/03 06:30:50;;;;;;;;;;;8.80;99.90;;;;;;5027031;28;20300;-75
2022/05/03 06:33:16;;;;;;;;;;;8.80;99.90;;;;;;5027349;28;20298;-76
2022/05/03 06:35:41;;;;;;;;;;;8.90;99.90;;;;;;5026281;28;19937;-77
2022/05/03 06:38:07;;;;;;;;;;;9.10;99.90;;;;;;5026911;28;19928;-77
2022/05/03 06:40:33;;;;;;;;;;;9.10;99.90;;;;;;5026178;28;20655;-76
2022/05/03 06:42:58;;;;;;;;;;;9.20;99.90;;;;;;5026650;28;20379;-75
2022/05/03 06:45:24;;;;;;;;;;;9.30;99.90;;;;;;5027297;28;19925;-75
2022/05/03 06:47:49;;;;;;;;;;;9.30;99.90;;;;;;5026253;28;19925;-75
2022/05/03 06:50:16;;;;;;;;;;;9.30;99.90;;;;;;5026711;28;19924;-76
2022/05/03 06:52:41;;;;;;;;;;;9.40;99.90;;;;;;5026042;28;19927;-75
2022/05/03 06:55:07;;;;;;;;;;;9.40;99.90;;;;;;5025760;28;20375;-75
2022/05/03 06:57:33;;;;;;;;;;;9.40;99.90;;;;;;5025171;28;19983;-76
2022/05/03 07:00:01;;;;;;;;;;;9.40;99.90;;;;;;5025063;28;19925;-75
2022/05/03 07:02:30;;;;;;;;;;;9.40;99.90;;;;;;5024281;28;19921;-75
2022/05/03 07:04:56;;;;;;;;;;;9.30;99.90;;;;;;5017346;28;20602;-75
2022/05/03 07:07:22;;;;;;;;;;;9.30;99.90;;;;;;5026084;28;19921;-75
2022/05/03 07:09:48;;;;;;;;;;;9.20;99.90;;;;;;5026147;28;19976;-75
2022/05/03 07:12:13;;;;;;;;;;;9.20;99.90;;;;;;5026340;28;19963;-74
2022/05/03 07:14:39;;;;;;;;;;;9.20;99.90;;;;;;5026485;28;20717;-75
2022/05/03 07:17:05;;;;;;;;;;;9.30;99.90;;;;;;5023891;28;20375;-75
2022/05/03 07:24:58;;;;;;;;;;;9.20;99.90;;;;;;5029593;28;19925;-76
2022/05/03 07:27:24;;;;;;;;;;;9.40;99.90;;;;;;5029264;28;19928;-77
2022/05/03 07:29:49;;;;;;;;;;;9.30;99.90;;;;;;5026727;28;19920;-74
2022/05/03 07:32:15;;;;;;;;;;;9.50;99.90;;;;;;5030959;28;20280;-76
2022/05/03 07:34:40;;;;;;;;;;;9.40;99.90;;;;;;5029354;28;19921;-75
2022/05/03 07:37:06;;;;;;;;;;;9.50;99.90;;;;;;5012351;28;19921;-75
2022/05/03 07:39:31;;;;;;;;;;;9.50;99.90;;;;;;5028584;28;19921;-76
2022/05/03 07:41:57;;;;;;;;;;;9.60;99.90;;;;;;5020322;28;19921;-76
2022/05/03 07:44:23;;;;;;;;;;;9.40;99.90;;;;;;5028005;28;19971;-77
2022/05/03 07:46:48;;;;;;;;;;;9.50;99.90;;;;;;5030885;28;19975;-76
2022/05/03 07:49:14;;;;;;;;;;;9.60;99.90;;;;;;5029155;28;19928;-75
2022/05/03 07:51:41;;;;;;;;;;;9.70;99.90;;;;;;5025240;28;20000;-77
2022/05/03 07:54:07;;;;;;;;;;;9.50;99.90;;;;;;5028600;28;19921;-77
2022/05/03 07:56:33;;;;;;;;;;;9.60;99.90;;;;;;5029452;28;19927;-77
2022/05/03 07:58:58;;;;;;;;;;;9.60;99.90;;;;;;5028165;28;20322;-77
2022/05/03 08:01:24;;;;;;;;;;;9.60;99.90;;;;;;5027644;28;19925;-76
2022/05/03 08:03:49;;;;;;;;;;;9.60;99.90;;;;;;5030539;28;19928;-74
2022/05/03 08:06:15;;;;;;;;;;;9.70;99.90;;;;;;5029120;28;19964;-78
2022/05/03 08:08:40;;;;;;;;;;;9.60;99.90;;;;;;5029146;28;19931;-76
2022/05/03 08:11:06;;;;;;;;;;;9.70;99.90;;;;;;5028288;28;19928;-75
2022/05/03 08:13:31;;;;;;;;;;;9.70;99.90;;;;;;5028914;28;20445;-74
2022/05/03 08:15:57;;;;;;;;;;;9.60;99.90;;;;;;5028587;28;19921;-74
2022/05/03 08:18:23;;;;;;;;;;;9.60;99.90;;;;;;5029559;28;20622;-75
2022/05/03 08:20:48;;;;;;;;;;;9.60;99.90;;;;;;5027950;28;20004;-75
2022/05/03 08:23:14;;;;;;;;;;;9.60;99.90;;;;;;5008434;28;19925;-75
2022/05/03 08:25:39;;;;;;;;;;;9.70;99.90;;;;;;5030144;28;19929;-75
2022/05/03 08:28:05;;;;;;;;;;;9.60;99.90;;;;;;5027231;28;19949;-75
2022/05/03 08:30:31;;;;;;;;;;;9.40;99.90;;;;;;5027055;28;19929;-75
2022/05/03 08:32:56;;;;;;;;;;;9.40;99.90;;;;;;5027033;28;19927;-74
2022/05/03 08:35:24;;;;;;;;;;;9.40;99.90;;;;;;5027540;28;20349;-74
2022/05/03 08:43:17;;;;;;;;;;;9.60;99.90;;;;;;5027460;28;19921;-74
2022/05/03 08:45:47;;;;;;;;;;;9.50;99.90;;;;;;5028905;28;19921;-74
2022/05/03 08:48:13;;;;;;;;;;;9.60;99.90;;;;;;5023666;28;19975;-77
2022/05/03 08:50:39;;;;;;;;;;;9.50;99.90;;;;;;5025637;28;19921;-76
2022/05/03 08:53:05;;;;;;;;;;;9.50;99.90;;;;;;5029894;28;19928;-75
2022/05/03 08:55:30;;;;;;;;;;;9.60;99.90;;;;;;5029121;28;19963;-76
2022/05/03 08:57:56;;;;;;;;;;;9.60;99.90;;;;;;5027990;28;19921;-76
2022/05/03 09:00:22;;;;;;;;;;;9.40;99.90;;;;;;5026770;28;19931;-75
2022/05/03 09:02:51;;;;;;;;;;;9.60;99.90;;;;;;5027838;28;19997;-75
2022/05/03 09:05:17;;;;;;;;;;;9.60;99.90;;;;;;5028202;28;19925;-77
2022/05/03 09:07:49;;;;;;;;;;;9.70;99.90;;;;;;5027740;28;20286;-76
2022/05/03 09:10:20;;;;;;;;;;;9.80;99.90;;;;;;5028113;28;19921;-77
2022/05/03 09:12:46;;;;;;;;;;;9.80;99.90;;;;;;5011057;28;19917;-76
2022/05/03 09:15:12;;;;;;;;;;;10.00;99.90;;;;;;5011573;28;20328;-79
2022/05/03 09:17:45;;;;;;;;;;;10.00;99.90;;;;;;5012905;28;20286;-87
2022/05/03 09:25:47;;;;;;;;;;;10.30;99.90;;;;;;5029551;28;19921;-82
2022/05/03 09:28:12;;;;;;;;;;;10.40;99.90;;;;;;5028791;28;19943;-79
2022/05/03 09:30:45;;;;;;;;;;;10.40;99.90;;;;;;5028495;28;22252;-77
2022/05/03 09:33:14;;;;;;;;;;;10.70;99.90;;;;;;5026284;28;19921;-78
2022/05/03 09:35:40;;;;;;;;;;;10.50;99.90;;;;;;5027679;28;20012;-77
2022/05/03 09:38:05;;;;;;;;;;;10.70;99.90;;;;;;5027952;28;20011;-78
2022/05/03 09:40:41;;;;;;;;;;;10.80;99.90;;;;;;5029185;28;19921;-76
2022/05/03 09:43:06;;;;;;;;;;;10.80;99.90;;;;;;5027036;28;19921;-76
2022/05/03 09:45:32;;;;;;;;;;;10.80;99.90;;;;;;5025780;28;19944;-76
2022/05/03 09:47:59;;;;;;;;;;;11.00;99.90;;;;;;5029455;28;19921;-76
2022/05/03 09:50:26;;;;;;;;;;;11.00;99.90;;;;;;5027822;28;19972;-74
2022/05/03 09:52:52;;;;;;;;;;;11.00;99.90;;;;;;5026594;28;19975;-74
2022/05/03 09:55:26;;;;;;;;;;;10.70;99.90;;;;;;5029147;28;20039;-74
2022/05/03 09:57:52;;;;;;;;;;;10.70;99.90;;;;;;5028796;28;19921;-74
2022/05/03 10:00:17;;;;;;;;;;;11.00;99.90;;;;;;5028198;28;19921;-74
2022/05/03 10:02:43;;;;;;;;;;;11.00;99.90;;;;;;5026728;28;19921;-75
2022/05/03 10:05:10;;;;;;;;;;;11.30;99.90;;;;;;5026885;28;19929;-75
2022/05/03 10:07:37;;;;;;;;;;;11.50;99.90;;;;;;5027081;28;19925;-78
2022/05/03 10:10:06;;;;;;;;;;;11.40;99.90;;;;;;5027958;28;19937;-76
2022/05/03 10:12:33;;;;;;;;;;;11.10;99.90;;;;;;5028389;28;19943;-77
2022/05/03 10:14:59;;;;;;;;;;;11.40;99.90;;;;;;5022088;28;20024;-78
2022/05/03 10:20:42;;;;;;;;;;;11.20;99.90;;;;;;5020282;28;19921;-76
2022/05/03 10:23:21;;;;;;;;;;;11.30;99.90;;;;;;5023694;28;19921;-76
2022/05/03 10:25:47;;;;;;;;;;;11.10;99.90;;;;;;5021553;28;19921;-75
2022/05/03 10:28:12;;;;;;;;;;;11.30;99.90;;;;;;5008303;28;19991;-76
2022/05/03 10:30:39;;;;;;;;;;;11.20;99.90;;;;;;5027055;28;20000;-78
2022/05/03 10:33:19;;;;;;;;;;;11.20;99.90;;;;;;5026880;28;19968;-76
2022/05/03 10:35:45;;;;;;;;;;;11.30;99.90;;;;;;5016847;28;19922;-77
2022/05/03 10:38:12;;;;;;;;;;;11.60;99.90;;;;;;5020071;28;20386;-78
2022/05/03 10:40:47;;;;;;;;;;;11.60;99.90;;;;;;5028051;28;20342;-77
2022/05/03 10:43:14;;;;;;;;;;;11.70;99.90;;;;;;5024077;28;19928;-75
2022/05/03 10:45:47;;;;;;;;;;;11.60;99.90;;;;;;5027547;28;20938;-75
2022/05/03 10:48:23;;;;;;;;;;;11.80;99.90;;;;;;5028789;28;19925;-76
2022/05/03 10:50:51;;;;;;;;;;;11.60;99.90;;;;;;5028000;28;19928;-75
2022/05/03 10:53:17;;;;;;;;;;;11.60;99.90;;;;;;5028869;28;20355;-75
2022/05/03 10:56:02;;;;;;;;;;;11.60;99.90;;;;;;5031861;28;19971;-76
2022/05/03 10:58:28;;;;;;;;;;;11.50;99.90;;;;;;5032698;28;19932;-76
2022/05/03 11:01:01;;;;;;;;;;;11.70;99.90;;;;;;5028933;28;20359;-75
2022/05/03 11:03:26;;;;;;;;;;;11.90;99.90;;;;;;5028498;28;19921;-74
2022/05/03 11:06:27;;;;;;;;;;;12.10;99.90;;;;;;5029406;28;19921;-78
2022/05/03 11:09:05;;;;;;;;;;;12.00;99.90;;;;;;5007172;28;19928;-77
2022/05/03 11:11:41;;;;;;;;;;;12.00;99.90;;;;;;5030918;28;19921;-75
2022/05/03 11:14:20;;;;;;;;;;;12.10;99.90;;;;;;5032473;28;19996;-75
2022/05/03 11:16:47;;;;;;;;;;;11.80;99.90;;;;;;5030897;28;19921;-75
2022/05/03 11:19:17;;;;;;;;;;;11.90;99.90;;;;;;5030543;28;19921;-75
2022/05/03 11:21:43;;;;;;;;;;;11.90;99.90;;;;;;5029246;28;20024;-75
2022/05/03 11:24:24;;;;;;;;;;;11.90;99.90;;;;;;5029686;28;20013;-75
2022/05/03 11:26:53;;;;;;;;;;;11.70;99.90;;;;;;5029932;28;19921;-74
2022/05/03 11:29:19;;;;;;;;;;;12.30;99.90;;;;;;5032258;28;20322;-75
2022/05/03 11:31:46;;;;;;;;;;;12.60;99.90;;;;;;5029146;28;19929;-72
2022/05/03 11:34:12;;;;;;;;;;;12.90;99.90;;;;;;5031452;28;20864;-75
2022/05/03 11:36:40;;;;;;;;;;;13.00;99.90;;;;;;5029798;28;19921;-75
2022/05/03 11:39:05;;;;;;;;;;;12.60;99.90;;;;;;5032184;28;19932;-75
2022/05/03 11:41:31;;;;;;;;;;;12.70;99.90;;;;;;5030516;28;19921;-77
2022/05/03 11:43:56;;;;;;;;;;;12.60;99.90;;;;;;5030057;28;19928;-75
2022/05/03 11:46:22;;;;;;;;;;;12.50;99.90;;;;;;5030884;28;20336;-75
2022/05/03 11:49:04;;;;;;;;;;;12.30;99.90;;;;;;5031122;28;20012;-75
2022/05/03 11:57:08;;;;;;;;;;;13.00;99.90;;;;;;5027086;28;19921;-74
2022/05/03 11:59:34;;;;;;;;;;;12.70;99.90;;;;;;5016314;28;20347;-75
2022/05/03 12:02:17;;;;;;;;;;;12.60;99.90;;;;;;5023231;28;19944;-76
2022/05/03 12:05:04;;;;;;;;;;;12.50;99.90;;;;;;5026213;28;19921;-80
2022/05/03 12:07:44;;;;;;;;;;;12.50;99.90;;;;;;5028356;28;22551;-77
2022/05/03 12:10:37;;;;;;;;;;;12.70;99.90;;;;;;5029669;28;20417;-76
2022/05/03 12:13:02;;;;;;;;;;;12.30;99.90;;;;;;5026985;28;19931;-76
2022/05/03 12:15:31;;;;;;;;;;;12.40;99.90;;;;;;5030463;28;19921;-76
2022/05/03 12:17:57;;;;;;;;;;;12.60;99.90;;;;;;5013174;28;19921;-77
2022/05/03 12:20:22;;;;;;;;;;;12.40;99.90;;;;;;5027852;28;19932;-76
2022/05/03 12:23:08;;;;;;;;;;;12.50;99.90;;;;;;5011657;28;19960;-77
2022/05/03 12:25:35;;;;;;;;;;;12.30;99.90;;;;;;5028591;28;19968;-76
2022/05/03 12:28:05;;;;;;;;;;;12.60;99.90;;;;;;5027869;28;19921;-76
2022/05/03 12:30:31;;;;;;;;;;;12.80;99.90;;;;;;5027462;28;19928;-76
2022/05/03 12:33:04;;;;;;;;;;;12.50;99.90;;;;;;5027716;28;19921;-77
2022/05/03 12:35:33;;;;;;;;;;;12.40;99.90;;;;;;5029015;28;19927;-76
2022/05/03 12:38:13;;;;;;;;;;;12.40;99.90;;;;;;5027139;28;19932;-76
2022/05/03 12:40:42;;;;;;;;;;;12.30;99.90;;;;;;5027468;28;19928;-75
2022/05/03 12:43:12;;;;;;;;;;;12.50;99.90;;;;;;5006492;28;20007;-76
2022/05/03 12:45:37;;;;;;;;;;;12.70;99.90;;;;;;5029843;28;20024;-76
2022/05/03 12:48:03;;;;;;;;;;;12.60;99.90;;;;;;5028680;28;20438;-75
2022/05/03 12:50:29;;;;;;;;;;;12.60;99.90;;;;;;5026496;28;19927;-76
2022/05/03 12:53:12;;;;;;;;;;;12.50;99.90;;;;;;5027159;28;20016;-76
2022/05/03 12:55:38;;;;;;;;;;;12.50;99.90;;;;;;5028735;28;19948;-76
2022/05/03 12:58:21;;;;;;;;;;;12.60;99.90;;;;;;5029030;28;19921;-75
2022/05/03 13:00:48;;;;;;;;;;;12.80;99.90;;;;;;5026835;28;19928;-77
2022/05/03 13:03:13;;;;;;;;;;;13.00;99.90;;;;;;5028170;28;19924;-76
2022/05/03 13:05:39;;;;;;;;;;;12.60;99.90;;;;;;5028140;28;20454;-76
2022/05/03 13:08:05;;;;;;;;;;;12.80;99.90;;;;;;5027859;28;19998;-77
2022/05/03 13:10:31;;;;;;;;;;;12.70;99.90;;;;;;5027569;28;19928;-76
2022/05/03 13:12:56;;;;;;;;;;;12.60;99.90;;;;;;5029482;28;19925;-78
2022/05/03 13:15:21;;;;;;;;;;;12.80;99.90;;;;;;5026893;28;20422;-77
2022/05/03 13:17:47;;;;;;;;;;;12.80;99.90;;;;;;5026875;28;19921;-77
2022/05/03 13:20:12;;;;;;;;;;;12.80;99.90;;;;;;5026694;28;20371;-76
2022/05/03 13:22:38;;;;;;;;;;;12.70;99.90;;;;;;5028993;28;19921;-77
2022/05/03 13:25:04;;;;;;;;;;;12.30;99.90;;;;;;5029370;28;20099;-77
2022/05/03 13:27:29;;;;;;;;;;;12.20;99.90;;;;;;5027444;28;19925;-77
2022/05/03 13:29:55;;;;;;;;;;;12.10;99.90;;;;;;5029157;28;19974;-76
2022/05/03 13:32:20;;;;;;;;;;;12.30;99.90;;;;;;5025042;28;19921;-76
2022/05/03 13:34:46;;;;;;;;;;;12.80;99.90;;;;;;5018806;28;19922;-76
2022/05/03 13:42:47;;;;;;;;;;;13.40;99.90;;;;;;5028747;28;19924;-77
2022/05/03 13:45:13;;;;;;;;;;;13.90;99.90;;;;;;5029036;28;20003;-76
2022/05/03 13:47:38;;;;;;;;;;;13.80;99.90;;;;;;5026186;28;20123;-76
2022/05/03 13:50:04;;;;;;;;;;;13.10;99.90;;;;;;5027024;28;20368;-76
2022/05/03 13:52:32;;;;;;;;;;;12.70;99.90;;;;;;5024770;28;19921;-76
2022/05/03 13:54:58;;;;;;;;;;;12.80;99.90;;;;;;5028816;28;19935;-77
2022/05/03 13:57:24;;;;;;;;;;;12.50;99.90;;;;;;5009451;28;19925;-77
2022/05/03 13:59:49;;;;;;;;;;;12.30;99.90;;;;;;5028702;28;19921;-76
2022/05/03 14:02:15;;;;;;;;;;;12.10;99.90;;;;;;5026410;28;20244;-76
2022/05/03 14:04:40;;;;;;;;;;;12.10;99.90;;;;;;5027463;28;20298;-76
2022/05/03 14:07:08;;;;;;;;;;;12.10;99.90;;;;;;5024750;28;20400;-76
2022/05/03 14:09:33;;;;;;;;;;;12.10;99.90;;;;;;5025770;28;20318;-76
2022/05/03 14:12:00;;;;;;;;;;;12.20;99.90;;;;;;5026581;28;19928;-76
2022/05/03 14:14:26;;;;;;;;;;;12.30;99.90;;;;;;5026408;28;20405;-76
2022/05/03 14:16:51;;;;;;;;;;;12.20;99.90;;;;;;5027270;28;20071;-75
2022/05/03 14:19:17;;;;;;;;;;;12.40;99.90;;;;;;5026418;28;19920;-76
2022/05/03 14:21:42;;;;;;;;;;;12.30;99.90;;;;;;5026665;28;19978;-75
2022/05/03 14:24:08;;;;;;;;;;;12.90;99.90;;;;;;5025799;28;19921;-75
2022/05/03 14:26:33;;;;;;;;;;;12.40;99.90;;;;;;5025248;28;19916;-75
2022/05/03 14:28:59;;;;;;;;;;;12.90;99.90;;;;;;5014366;28;19951;-76
2022/05/03 14:31:25;;;;;;;;;;;13.00;99.90;;;;;;5029360;28;19928;-75
2022/05/03 14:33:52;;;;;;;;;;;12.80;99.90;;;;;;5028629;28;20072;-75
2022/05/03 14:36:17;;;;;;;;;;;12.50;99.90;;;;;;5030025;28;19921;-75
2022/05/03 14:38:43;;;;;;;;;;;12.20;99.90;;;;;;5029977;28;19928;-75
2022/05/03 14:41:08;;;;;;;;;;;12.40;99.90;;;;;;5029869;28;19925;-75
2022/05/03 14:43:34;;;;;;;;;;;11.80;99.90;;;;;;5030589;28;19963;-76
2022/05/03 14:45:59;;;;;;;;;;;11.90;99.90;;;;;;5031109;28;19972;-76
2022/05/03 14:48:25;;;;;;;;;;;11.70;99.90;;;;;;5026937;28;20381;-76
2022/05/03 14:50:50;;;;;;;;;;;11.90;99.90;;;;;;5018628;28;19936;-74
2022/05/03 14:53:16;;;;;;;;;;;11.90;99.90;;;;;;5023880;28;19921;-76
2022/05/03 15:02:51;;;;;;;;;;;11.80;99.90;;;;;;5027843;28;19947;-76
2022/05/03 15:03:57;;;;;;;;;;;12.00;99.90;;;;;;5028744;28;19975;-75
2022/05/03 15:06:23;;;;;;;;;;;11.80;99.90;;;;;;5029524;28;20035;-75
2022/05/03 15:08:51;;;;;;;;;;;11.60;99.90;;;;;;5030014;28;19921;-76
2022/05/03 15:11:16;;;;;;;;;;;11.60;99.90;;;;;;5030282;28;20303;-76
2022/05/03 15:13:41;;;;;;;;;;;11.70;99.90;;;;;;5030577;28;19933;-76
2022/05/03 15:16:07;;;;;;;;;;;11.50;99.90;;;;;;5031255;28;19921;-77